Tiempo atmosférico en la estación meteorológica de Aragüés Del Puerto, Huesca (1120 m.)



Fecha
DESCASC
Temp. máxima en grados centígrados (hora)
DESCASC
Temp. mínima en grados centígrados (hora)
DESCASC
Temp. media en grados centígrados
DESCASC
Racha de viento máxima en m/sg (hora)
DESCASC
Velocidad máxima media en intervalos de 10 minutos(hora)
DESCASC
Precipitaciones diarias en mm
DESCASC
Precipitaciones de 00:00 a 06:00 en mm
DESCASC
Precipitaciones de 06:00 a 12:00 en mm
DESCASC
Precipitaciones de 12:00 a 18:00 en mm
DESCASC
Precipitaciones de 18:00 a 24:00 en mm
DESCASC
18-08-2019 31.9 (14:50) 18.9 (23:59) 25.4 10.56 (14:20) 4.72 (11:40) 0 0 0 0 0
17-08-2019 32.1 (16:30) 17.9 (07:40) 25 8.61 (18:00) 5 (23:30) 0 0 0 0 0
16-08-2019 30.1 (17:00) 11.1 (06:40) 20.6 8.33 (15:00) 3.89 (23:50) 0 0 0 0 0
15-08-2019 26.5 (16:20) 13.9 (00:00) 20.2 10.83 (16:50) 5 (16:40) 0 0 0 0 0
14-08-2019 26.5 (16:00) 9.2 (00:00) 17.8 13.33 (15:40) 6.11 (17:20) 0 0 0 0 0
13-08-2019 23.2 (17:00) 8.5 (00:00) 15.9 9.17 (18:10) 4.44 (15:10) 0 0 0 0 0
12-08-2019 20.1 (14:00) 10.7 (00:00) 15.4 17.78 (18:10) 10 (18:10) 0 0 0 0 0
11-08-2019 24.9 (17:40) 14.8 (00:00) 19.8 10.28 (09:10) 5.83 (06:50) 5.8 0 5.8 0 0
10-08-2019 27.3 (14:30) 13.4 (00:00) 20.3 8.06 (14:40) 4.17 (14:50) 0.2 0.2 0 0 0
09-08-2019 32.3 (15:00) 17.5 (00:00) 24.9 9.72 (13:10) 5.56 (13:10) 1.2 0 0 0 1.2
08-08-2019 30.7 (15:40) 17.5 (00:00) 24.1 10.56 (15:30) 4.72 (16:20) 0 0 0 0 0
07-08-2019 29.1 (15:50) 17.4 (00:00) 23.3 8.89 (15:50) 5 (16:00) 0 0 0 0 0
06-08-2019 31.2 (17:40) 18.6 (00:00) 24.9 7.22 (13:40) 4.17 (14:10) 0 0 0 0 0
05-08-2019 31.9 (17:30) 16.8 (00:00) 24.3 9.17 (15:50) 5.28 (14:50) 0 0 0 0 0
04-08-2019 32.3 (17:10) 18.3 (00:00) 25.3 8.61 (16:00) 4.72 (14:20) 0 0 0 0 0
03-08-2019 31.8 (16:40) 16.5 (00:00) 24.1 7.5 (16:10) 4.44 (04:50) 0 0 0 0 0
02-08-2019 28.6 (15:30) 13.1 (00:00) 20.9 9.17 (16:10) 5 (22:20) 0 0 0 0 0
01-08-2019 28.2 (17:50) 15.7 (00:00) 22 8.61 (14:10) 5.28 (14:20) 2 0 0 0 2
31-07-2019 26.2 (15:20) 8.3 (00:00) 17.3 6.39 (17:40) 4.17 (17:40) 0 0 0 0 0
30-07-2019 24.1 (15:50) 11.3 (00:00) 17.7 7.78 (17:30) 3.89 (17:50) 0 0 0 0 0
29-07-2019 27.6 (17:50) 12 (00:00) 19.8 8.33 (15:40) 5.28 (15:40) 0 0 0 0 0
28-07-2019 23 (17:30) 9.9 (00:00) 16.4 8.61 (12:40) 3.89 (08:00) 0 0 0 0 0
27-07-2019 19.6 (15:50) 12.1 (00:00) 15.9 10 (21:20) 5.28 (23:00) 1.8 1.2 0 0.2 0.4
26-07-2019 25.7 (14:10) 14.5 (00:00) 20.1 11.39 (19:40) 7.22 (19:50) 18 0 0.4 5.2 12.4
25-07-2019 34.5 (14:20) 22.6 (00:00) 28.6 11.94 (16:30) 6.39 (05:40) 0 0 0 0 0
24-07-2019 34.2 (14:40) 21.5 (00:00) 27.9 9.72 (16:50) 5.28 (23:20) 0 0 0 0 0

Gráficas

Temp. máximas Temp. mínimas Temp. medias Precipitaciones Rachas de viento máximas Velocidades máximas media en intervalos de 10 minutos

Datos horarios

Fecha y hora oficial Temperatura (ºC) Velocidad del viento (km/h) Dirección del viento Racha (km/h) Dirección de racha Precipitación (mm) Presión (hPa) Tendencia (hPa) Humedad (%)
2019-08-22 23:00:00 18.1 14 Norte 21 Norte 0 906.2 1.3 52
2019-08-22 22:00:00 18.7 11 Norte 20 Nordeste 0 905.9 1.2 51
2019-08-22 21:00:00 20.3 8 Norte 15 Norte 0 905.2 0.3 47
2019-08-22 20:00:00 24 4 Oeste 17 Sudoeste 0 904.9 -0.1 32
2019-08-22 19:00:00 26.7 6 Sudoeste 21 Sudoeste 0 904.7 -0.6 25
2019-08-22 18:00:00 27.3 9 Sudoeste 28 Sudoeste 0 904.9 -0.8 23
2019-08-22 17:00:00 27.6 8 Oeste 22 Sur 0 905 -0.8 20
2019-08-22 16:00:00 26.8 14 Sudoeste 26 Sudoeste 0 905.3 -0.9 26
2019-08-22 15:00:00 26.7 10 Sudoeste 22 Sudoeste 0 905.7 -0.7 29
2019-08-22 14:00:00 25.5 11 Sudoeste 22 Oeste 0 905.8 -0.6 31
2019-08-22 13:00:00 24.6 10 Sudoeste 21 Sudoeste 0 906.2 -0.1 38
2019-08-22 12:00:00 23.7 9 Sudoeste 17 Sudoeste 0 906.4 0.2 45
2019-08-22 11:00:00 21.6 7 Sur 12 Sur 0 906.4 0.6 53
2019-08-22 10:00:00 19.2 4 Sudeste 13 Nordeste 0 906.3 0.9 65
2019-08-22 09:00:00 15.5 4 Nordeste 7 Nordeste 0 906.2 1 76
2019-08-22 08:00:00 12.8 0 Calma 10 Norte 0 905.8 0.6 86
2019-08-22 07:00:00 12.9 3 Nordeste 6 Norte 0 905.4 0.3 86
2019-08-22 06:00:00 13.2 2 Noroeste 12 Nordeste 0 905.2 -0.2 86
2019-08-22 05:00:00 13.6 0 Calma 10 Norte 0 905.2 -0.5 84
2019-08-22 04:00:00 14.3 6 Norte 12 Norte 0 905.1 -0.7 82
2019-08-22 03:00:00 14.7 5 Norte 13 Norte 0 905.4 -0.2 80
2019-08-22 02:00:00 14.8 5 Norte 15 Norte 0 905.7 0.3 80
2019-08-22 01:00:00 15.8 8 Norte 19 Nordeste 0 905.8 0.9 76
2019-08-22 00:00:00 16.2 4 Noroeste 10 Norte 0 905.6 1.2 76
2019-08-21 23:00:00 17.3 5 Norte 12 Norte 0 905.4 1.5 71
2019-08-21 22:00:00 18.3 10 Norte 14 Norte 0 904.9 0.9 69
2019-08-21 21:00:00 20 6 Norte 14 Sudoeste 0 904.4 0.6 63
2019-08-21 20:00:00 21.7 4 Oeste 15 Oeste 0 903.9 -0.1 55
2019-08-21 19:00:00 22.6 10 Sudoeste 24 Oeste 0 904 -0.3 51
2019-08-21 18:00:00 23.8 7 Sudoeste 21 Sudoeste 0 903.8 -1 44
2019-08-21 17:00:00 23.3 12 Sudoeste 22 Sur 0 904 -1 44
2019-08-21 16:00:00 25.3 8 Sudoeste 20 Sudoeste 0 904.3 -1.3 39
2019-08-21 15:00:00 24.5 10 Sudoeste 22 Oeste 0 904.8 -1.5 44
2019-08-21 14:00:00 24.3 11 Sudeste 21 Sur 0 905 -1.3 44
2019-08-21 13:00:00 22.9 8 Sur 21 Sudoeste 0 905.6 -0.9 50
2019-08-21 12:00:00 21.1 10 Sudoeste 18 Sudoeste 0 906.3 -0.3 56
2019-08-21 11:00:00 20.1 4 Sudeste 10 Sur 0 906.3 0.2 61
2019-08-21 10:00:00 17.6 7 Nordeste 11 Nordeste 0 906.5 0.3 68
2019-08-21 09:00:00 15 3 Este 8 Noroeste 0 906.6 0.3 85
2019-08-21 08:00:00 12.6 2 Oeste 7 Noroeste 0 906.1 -0.5 89
2019-08-21 07:00:00 12.7 2 Este 8 Norte 0 906.2 -0.3 87
2019-08-21 06:00:00 12.2 3 Norte 12 Norte 0 906.3 -0.5 89
2019-08-21 05:00:00 12.6 5 Norte 16 Norte 0 906.6 -0.4 87
2019-08-21 04:00:00 12.8 9 Norte 14 Norte 0 906.5 -0.8 86
2019-08-21 03:00:00 12.4 3 Nordeste 13 Norte 0 906.8 -0.4 87
2019-08-21 02:00:00 13.1 6 Norte 18 Nordeste 0 907 0.3 85
2019-08-21 01:00:00 13.3 8 Norte 17 Norte 0 907.3 1 84
2019-08-21 00:00:00 13.4 4 Norte 13 Norte 0 907.2 1.3 83
2019-08-20 23:00:00 13.5 3 Norte 10 Nordeste 0 906.7 1.2 84
2019-08-20 22:00:00 14.7 7 Norte 14 Norte 0 906.3 1.1 79
2019-08-20 21:00:00 16.2 3 Nordeste 14 Oeste 0 905.9 0.6 69
2019-08-20 20:00:00 18.1 9 Oeste 20 Sudoeste 0 905.5 0.2 61
2019-08-20 19:00:00 20.9 12 Sudoeste 22 Sudoeste 0 905.2 -0.3 52
2019-08-20 18:00:00 21.5 9 Sudoeste 24 Sudoeste 0 905.3 -0.2 51
2019-08-20 17:00:00 22.2 13 Sudoeste 23 Sudoeste 0 905.3 -0.3 51
2019-08-20 16:00:00 21.6 10 Sudoeste 23 Oeste 0 905.5 0 54
2019-08-20 15:00:00 19.9 10 Oeste 20 Sudoeste 0 905.5 0.4 61
2019-08-20 14:00:00 18.6 5 Sudoeste 14 Sur 0 905.6 1 67
2019-08-20 13:00:00 18.7 9 Sur 17 Sur 0 905.5 1.5 68
2019-08-20 12:00:00 17.2 5 Sur 12 Sudoeste 0 905.1 1.2 80
2019-08-20 11:00:00 14.3 5 Sudoeste 13 Oeste 0 904.6 1.1 89
2019-08-20 10:00:00 13.7 5 Noroeste 16 Sudoeste 0.2 904 1.4 93
2019-08-20 09:00:00 13.2 10 Norte 19 Oeste 1 903.9 1 93
2019-08-20 08:00:00 13.8 3 Sur 19 Noroeste 0.8 903.5 1.5 93
2019-08-20 07:00:00 14 3 Sur 15 Noroeste 2.6 902.6 0.2 94
2019-08-20 06:00:00 14 3 Sudeste 16 Sudoeste 3.6 902.9 -0.1 93
2019-08-20 05:00:00 14.3 4 Sudoeste 14 Norte 5.6 902 -0.7 90
2019-08-20 04:00:00 14.3 5 Nordeste 13 Norte 3.4 902.4 -0.9 92
2019-08-20 03:00:00 14.5 5 Nordeste 18 Norte 2.4 903 -0.7 92
2019-08-20 02:00:00 14.6 10 Norte 18 Nordeste 1 902.7 -0.7 91
2019-08-20 01:00:00 14.9 5 Nordeste 18 Nordeste 0.4 903.3 -0.1 90
2019-08-20 00:00:00 15.9 3 Noroeste 19 Norte 0.6 903.7 0.8 88
2019-08-19 23:00:00 16.5 14 Norte 23 Nordeste 0.2 903.4 0.8 84
2019-08-19 22:00:00 17.8 5 Sudoeste 14 Sudoeste 0.2 903.4 1.1 74
2019-08-19 21:00:00 19.8 5 Sur 20 Oeste 0 902.9 1.1 63
2019-08-19 20:00:00 20.9 6 Sudoeste 12 Sudoeste 0 902.6 0.2 60
2019-08-19 19:00:00 21.4 2 Este 28 Sudoeste 0 902.3 -0.3 57
2019-08-19 18:00:00 22.4 7 Sudeste 16 Sudoeste 0 901.8 -0.7 55
2019-08-19 17:00:00 22.3 8 Oeste 21 Sudoeste 0 902.4 -0.3 54
2019-08-19 16:00:00 22.7 12 Sudoeste 22 Sudeste 0 902.6 -0.1 53
2019-08-19 15:00:00 24.1 8 Sur 19 Sudeste 0 902.5 0.2 50
2019-08-19 14:00:00 20.7 3 Oeste 13 Sudoeste 0 902.7 0.4 60
2019-08-19 13:00:00 19.8 8 Sudoeste 15 Sudoeste 0 902.7 0.8 62
2019-08-19 12:00:00 20.3 5 Sur 11 Sudeste 0 902.3 0.6 61
2019-08-19 11:00:00 18.7 7 Sur 11 Sur 0 902.3 0.8 67
2019-08-19 10:00:00 17 6 Sur 8 Sur 0 901.9 0.5 70
2019-08-19 09:00:00 15.4 2 Este 5 Sudoeste 0 901.7 0.6 79
2019-08-19 08:00:00 14.9 2 Sudoeste 4 Sudoeste 0 901.5 0.2 80
2019-08-19 07:00:00 15.1 0 Calma 5 Sudoeste 0 901.4 0.3 79
2019-08-19 06:00:00 15.7 2 Sudoeste 5 Nordeste 0 901.1 -0.2 82
2019-08-19 05:00:00 16.2 0 Calma 5 Sudoeste 0 901.3 0 80
2019-08-19 04:00:00 16.6 2 Este 4 Sur 0 901.1 0.2 79
2019-08-19 03:00:00 16.6 2 Nordeste 5 Nordeste 0 901.3 0.5 84
2019-08-19 02:00:00 17.4 2 Sudoeste 10 Oeste 0 901.3 1.1 77
2019-08-19 01:00:00 18.4 5 Nordeste 13 Oeste 0 900.9 1.1 74
2019-08-19 00:00:00 18.9 2 Este 5 Norte 0 900.8 2.4 70
2019-08-18 23:00:00 19.4 2 Noroeste 13 Noroeste 0 900.2 2.1 67
2019-08-18 22:00:00 20.8 4 Noroeste 16 Noroeste 0 899.8 1.6 62
2019-08-18 21:00:00 23 6 Noroeste 16 Noroeste 0 898.4 0.3 58
2019-08-18 20:00:00 26.6 4 Oeste 19 Oeste 0 898.1 -0.1 43
2019-08-18 19:00:00 29.2 9 Sudoeste 28 Sudoeste 0 898.2 -0.1 26
2019-08-18 18:00:00 30.6 12 Sudoeste 28 Sudoeste 0 898.1 -0.5 19
2019-08-18 17:00:00 30.8 12 Sudoeste 32 Sur 0 898.2 -0.9 19
2019-08-18 16:00:00 30.9 14 Sur 35 Sur 0 898.3 -1.2 23
2019-08-18 15:00:00 31.1 12 Sudoeste 38 Sur 0 898.6 -1 21
2019-08-18 14:00:00 30.9 14 Sur 33 Sur 0 899.1 -0.4 20
2019-08-18 13:00:00 30 13 Sudeste 27 Sur 0 899.5 0.2 28
2019-08-18 12:00:00 28.7 14 Sur 24 Sur 0 899.6 1 32
2019-08-18 11:00:00 27.8 14 Sur 23 Sur 0 899.5 1.1 38
2019-08-18 10:00:00 27 6 Sur 12 Nordeste 0 899.3 1.2 41
2019-08-18 09:00:00 23.1 8 Nordeste 13 Nordeste 0 898.6 0.3 51
2019-08-18 08:00:00 21.1 6 Nordeste 17 Nordeste 0 898.4 -0.1 55
2019-08-18 07:00:00 21.1 9 Nordeste 13 Norte 0 898.1 -0.7 52
2019-08-18 06:00:00 21.4 4 Nordeste 10 Nordeste 0 898.3 -0.8 48
2019-08-18 05:00:00 22.9 5 Norte 16 Norte 0 898.5 -1 46
2019-08-18 04:00:00 21.6 5 Norte 14 Nordeste 0 898.8 -1.1 45
2019-08-18 03:00:00 22.3 5 Norte 13 Nordeste 0 899.1 -0.8 45
2019-08-18 02:00:00 22.3 7 Nordeste 15 Nordeste 0 899.5 -0.4 44
2019-08-18 01:00:00 22.9 5 Norte 20 Nordeste 0 899.9 0.1 41
2019-08-18 00:00:00 23.4 13 Norte 24 Nordeste 0 899.9 0.7 36
2019-08-17 23:00:00 24 14 Nordeste 23 Nordeste 0 899.9 0.5 32
2019-08-17 22:00:00 24.2 11 Norte 22 Nordeste 0 899.8 -0.1 28
2019-08-17 21:00:00 26.1 12 Norte 19 Norte 0 899.2 -0.9 24
2019-08-17 20:00:00 28.5 0 Calma 19 Sur 0 899.4 -1.1 20
2019-08-17 19:00:00 31.1 11 Sur 28 Sur 0 899.9 -1.1 15
2019-08-17 18:00:00 31.5 14 Sur 31 Sur 0 900.1 -1.4 22
2019-08-17 17:00:00 31.5 11 Sur 27 Sudeste 0 900.5 -1.4 21
2019-08-17 16:00:00 31.1 11 Sudeste 30 Sudoeste 0 901 -1.2 22
2019-08-17 15:00:00 31 9 Sudeste 29 Sur 0 901.5 -1.2 21
2019-08-17 14:00:00 30.6 14 Sudoeste 30 Sur 0 901.9 -0.7 23
2019-08-17 13:00:00 30.8 10 Sur 23 Sudeste 0 902.2 -0.4 23
2019-08-17 12:00:00 29.6 13 Sur 23 Sur 0 902.7 0 23
2019-08-17 11:00:00 27.5 9 Sur 14 Sur 0 902.6 0 30
2019-08-17 10:00:00 25.2 4 Este 16 Nordeste 0 902.6 0.3 35
2019-08-17 09:00:00 21.1 10 Nordeste 22 Nordeste 0 902.7 0.5 46
2019-08-17 08:00:00 18.2 5 Norte 18 Norte 0 902.6 0.2 53
2019-08-17 07:00:00 18.8 10 Norte 21 Nordeste 0 902.3 -0.6 50
2019-08-17 06:00:00 18.8 13 Nordeste 20 Norte 0 902.2 -0.8 51
2019-08-17 05:00:00 18.4 8 Norte 24 Nordeste 0 902.4 -0.6 53
2019-08-17 04:00:00 19 8 Norte 22 Nordeste 0 902.9 0 51
2019-08-17 03:00:00 19.6 13 Nordeste 23 Nordeste 0 903 0.1 49
2019-08-17 02:00:00 20.9 15 Norte 22 Nordeste 0 903 0.1 45
2019-08-17 01:00:00 21 12 Norte 21 Norte 0 902.9 0.4 45
2019-08-17 00:00:00 20.8 12 Norte 21 Nordeste 0 902.9 1 45
2019-08-16 23:00:00 21.1 9 Norte 21 Nordeste 0 902.9 1.2 44
2019-08-16 22:00:00 21.9 8 Norte 14 Nordeste 0 902.5 0.7 40
2019-08-16 21:00:00 24.2 7 Norte 15 Nordeste 0 901.9 -0.2 33
2019-08-16 20:00:00 27.2 6 Oeste 21 Sudoeste 0 901.7 -0.8 25
2019-08-16 19:00:00 29.2 5 Sudoeste 27 Sudoeste 0 901.8 -1.2 21
2019-08-16 18:00:00 29.5 10 Sudoeste 30 Sudoeste 0 902.1 -1.4 21
2019-08-16 17:00:00 29.8 8 Sur 25 Oeste 0 902.5 -1.3 16
2019-08-16 16:00:00 29.3 6 Sudoeste 27 Sudoeste 0 903 -1 13
2019-08-16 15:00:00 28.9 14 Sur 30 Sur 0 903.5 -0.7 12
2019-08-16 14:00:00 28.3 11 Sur 26 Sudoeste 0 903.8 -0.7 15
2019-08-16 13:00:00 27.7 9 Sudeste 21 Sur 0 904 -0.5 18
2019-08-16 12:00:00 26.5 8 Sur 18 Sur 0 904.2 -0.2 25
2019-08-16 11:00:00 24.3 5 Sur 10 Sur 0 904.5 0.3 25
2019-08-16 10:00:00 20.5 4 Nordeste 10 Nordeste 0 904.5 0.6 39
2019-08-16 09:00:00 17.3 9 Nordeste 14 Nordeste 0 904.4 0.6 45
2019-08-16 08:00:00 13.2 2 Sudoeste 5 Noroeste 0 904.2 0.1 56
2019-08-16 07:00:00 11.8 0 Calma 5 Norte 0 903.9 -0.4 54
2019-08-16 06:00:00 11.9 0 Calma 4 Sudeste 0 903.8 -0.6 46
2019-08-16 05:00:00 11.9 3 Nordeste 5 Norte 0 904.1 -0.5 40
2019-08-16 04:00:00 11.6 0 Calma 6 Norte 0 904.3 -0.4 37
2019-08-16 03:00:00 11.7 0 Calma 8 Nordeste 0 904.4 -0.6 36
2019-08-16 02:00:00 12.5 3 Sur 12 Nordeste 0 904.6 -0.1 46
2019-08-16 01:00:00 13.6 6 Nordeste 15 Norte 0 904.7 0.3 33
2019-08-16 00:00:00 14.1 3 Nordeste 13 Norte 0 905 1.1 40
2019-08-15 23:00:00 16 5 Norte 20 Norte 0 904.7 0.7 41
2019-08-15 22:00:00 16.7 6 Nordeste 9 Norte 0 904.4 0.6 52
2019-08-15 21:00:00 18.6 3 Norte 11 Sudoeste 0 903.9 0.2 54
2019-08-15 20:00:00 21.2 7 Noroeste 31 Oeste 0 904 0.3 45
2019-08-15 19:00:00 23.4 14 Oeste 33 Sudoeste 0 903.8 -0.2 40
2019-08-15 18:00:00 25.2 17 Sudoeste 36 Sudoeste 0 903.7 -0.7 32
2019-08-15 17:00:00 25.8 15 Sudoeste 39 Sudoeste 0 903.7 -0.9 25
2019-08-15 16:00:00 25.8 17 Sudoeste 35 Oeste 0 904 -0.8 27
2019-08-15 15:00:00 25.9 10 Sudoeste 38 Sudoeste 0 904.4 -0.9 35
2019-08-15 14:00:00 25.6 10 Sudoeste 27 Sudoeste 0 904.6 -0.7 38
2019-08-15 13:00:00 25.5 8 Sur 27 Sudoeste 0 904.8 -0.3 38
2019-08-15 12:00:00 22.1 11 Sudoeste 21 Sudoeste 0 905.3 0.1 52
2019-08-15 11:00:00 22.1 7 Sudeste 15 Sur 0 905.3 0.1 54
2019-08-15 10:00:00 20.3 5 Sudeste 9 Sur 0 905.1 0.4 60
2019-08-15 09:00:00 17.2 8 Nordeste 14 Nordeste 0 905.2 0.7 71
2019-08-15 08:00:00 14.6 8 Norte 12 Norte 0 905.2 0.7 81
2019-08-15 07:00:00 14.1 4 Nordeste 8 Nordeste 0 904.7 0.3 82
2019-08-15 06:00:00 14.5 3 Nordeste 11 Norte 0 904.5 0.1 83
2019-08-15 05:00:00 14.2 4 Oeste 9 Nordeste 0 904.5 -0.5 83
2019-08-15 04:00:00 14.2 3 Norte 18 Norte 0 904.4 -0.6 79
2019-08-15 03:00:00 15.5 5 Nordeste 9 Noroeste 0 904.4 -0.7 76
2019-08-15 02:00:00 16 6 Norte 9 Nordeste 0 905 0.1 74
2019-08-15 01:00:00 16.9 8 Norte 13 Norte 0 905 0.8 68
2019-08-15 00:00:00 17.2 7 Norte 16 Norte 0 905.1 1.1 66
2019-08-14 23:00:00 17.7 4 Norte 14 Sur 0 904.9 1.5 64
2019-08-14 22:00:00 19.5 5 Nordeste 21 Nordeste 0 904.2 0.9 55
2019-08-14 21:00:00 21.4 13 Norte 28 Nordeste 0 904 1.1 47
2019-08-14 20:00:00 22.4 14 Norte 31 Nordeste 0 903.4 0.4 43
2019-08-14 19:00:00 24.6 6 Sudoeste 33 Sudoeste 0 903.3 -0.2 35
2019-08-14 18:00:00 25.9 15 Oeste 40 Sudoeste 0 902.9 -0.7 30
2019-08-14 17:00:00 26.3 17 Sudoeste 40 Sudoeste 0 903 -1 28
2019-08-14 16:00:00 26.4 13 Sudoeste 48 Sudoeste 0 903.5 -0.8 28
2019-08-14 15:00:00 26 20 Sudoeste 40 Sudoeste 0 903.6 -1 26
2019-08-14 14:00:00 25 13 Sudoeste 36 Sudoeste 0 904 -0.7 23
2019-08-14 13:00:00 24.4 17 Sudoeste 37 Sudoeste 0 904.3 -0.6 21
2019-08-14 12:00:00 22.8 11 Sudoeste 32 Sudoeste 0 904.6 0 23
2019-08-14 11:00:00 20.9 12 Sudoeste 23 Sudoeste 0 904.7 0.4 28
2019-08-14 10:00:00 17.2 4 Este 8 Nordeste 0 904.9 1.1 40
2019-08-14 09:00:00 13.5 5 Nordeste 9 Nordeste 0 904.6 0.9 47
2019-08-14 08:00:00 9.8 2 Noroeste 6 Norte 0 904.3 0.4 55
2019-08-14 07:00:00 9.4 0 Calma 11 Nordeste 0 903.8 -0.2 58
2019-08-14 06:00:00 10.1 2 Norte 7 Norte 0 903.7 -0.7 60
2019-08-14 05:00:00 10.2 3 Sudoeste 10 Norte 0 903.9 -0.6 62
2019-08-14 04:00:00 10.2 2 Oeste 11 Nordeste 0 904 -0.7 67
2019-08-14 03:00:00 10.3 3 Noroeste 9 Nordeste 0 904.4 -0.2 70
2019-08-14 02:00:00 10.5 4 Norte 8 Norte 0 904.5 -0.1 70
2019-08-14 01:00:00 11.3 5 Norte 15 Nordeste 0 904.7 0.5 65
2019-08-14 00:00:00 11.4 3 Norte 10 Norte 0 904.6 1 69
2019-08-13 23:00:00 13 7 Norte 14 Nordeste 0 904.6 1.5 63
2019-08-13 22:00:00 14.4 3 Noroeste 9 Norte 0 904.2 1.3 59
2019-08-13 21:00:00 16.3 6 Oeste 13 Sur 0 903.6 0.9 52
2019-08-13 20:00:00 18.8 7 Oeste 26 Noroeste 0 903.1 0.1 43
2019-08-13 19:00:00 20.7 10 Oeste 33 Oeste 0 902.9 -0.3 44
2019-08-13 18:00:00 21.7 14 Sudoeste 33 Sudoeste 0 902.7 -0.9 41
2019-08-13 17:00:00 23.2 9 Sudoeste 30 Sudoeste 0 903 -1 34
2019-08-13 16:00:00 22.4 12 Sudoeste 30 Sudoeste 0 903.2 -1.3 35
2019-08-13 15:00:00 23 10 Sudoeste 26 Sudoeste 0 903.6 -1.2 33
2019-08-13 14:00:00 21.9 9 Sur 23 Sudoeste 0 904 -0.8 37
2019-08-13 13:00:00 19.6 9 Sudoeste 23 Sudoeste 0 904.5 -0.3 44
2019-08-13 12:00:00 18.3 8 Sudeste 14 Sur 0 904.8 0.1 51
2019-08-13 11:00:00 14.8 5 Sudeste 9 Sudeste 0 904.8 0.3 59
2019-08-13 10:00:00 12.9 3 Este 6 Este 0 904.8 0.9 66
2019-08-13 09:00:00 10.6 2 Este 9 Nordeste 0 904.7 0.7 74
2019-08-13 08:00:00 9.6 0 Calma 8 Nordeste 0 904.5 0.5 77
2019-08-13 07:00:00 8.6 2 Sur 6 Norte 0 903.9 -0.6 79
2019-08-13 06:00:00 9.5 5 Noroeste 10 Norte 0 904 -0.4 74
2019-08-13 05:00:00 10.3 7 Nordeste 13 Nordeste 0 904 -0.6 70
2019-08-13 04:00:00 10.3 2 Oeste 9 Noroeste 0 904.5 -0.1 70
2019-08-13 03:00:00 10.3 5 Norte 9 Norte 0 904.4 -0.1 67
2019-08-13 02:00:00 10.3 3 Este 13 Nordeste 0 904.6 0 66
2019-08-13 01:00:00 10.8 4 Nordeste 8 Norte 0 904.6 0.2 67
2019-08-13 00:00:00 11.6 4 Sudoeste 27 Norte 0 904.5 0.7 63
2019-08-12 23:00:00 14.2 17 Norte 38 Norte 0 904.6 1.6 49
2019-08-12 22:00:00 14.7 20 Norte 47 Norte 0 904.4 1.6 46
2019-08-12 21:00:00 15.4 25 Norte 58 Norte 0 903.8 1.2 44
2019-08-12 20:00:00 15.1 27 Norte 52 Nordeste 0 903 0.5 53
2019-08-12 19:00:00 15.9 32 Norte 64 Norte 0 902.8 0.1 51
2019-08-12 18:00:00 16.9 32 Nordeste 57 Nordeste 0 902.6 -0.1 49
2019-08-12 17:00:00 18.3 31 Nordeste 50 Nordeste 0 902.5 -0.1 43
2019-08-12 16:00:00 18.6 29 Nordeste 49 Nordeste 0 902.7 0.1 44
2019-08-12 15:00:00 19.3 27 Nordeste 48 Nordeste 0 902.7 0.2 42
2019-08-12 14:00:00 19.8 26 Nordeste 44 Nordeste 0 902.6 0.1 42
2019-08-12 13:00:00 19.5 25 Nordeste 41 Nordeste 0 902.6 0.5 41
2019-08-12 12:00:00 19.5 23 Nordeste 39 Nordeste 0 902.5 0.7 43
2019-08-12 11:00:00 19.3 7 Sudeste 12 Sudeste 0 902.5 1 52
2019-08-12 10:00:00 17.2 7 Sur 11 Sudeste 0 902.1 1 62
2019-08-12 09:00:00 14.6 3 Nordeste 11 Nordeste 0 901.8 0.9 75
2019-08-12 08:00:00 11.3 2 Sudeste 9 Norte 0 901.5 0.7 88
2019-08-12 07:00:00 10.7 0 Calma 8 Nordeste 0 901.1 0 89
2019-08-12 06:00:00 11.3 2 Noroeste 11 Nordeste 0 900.9 -0.6 87
2019-08-12 05:00:00 11.7 2 Noroeste 10 Norte 0 900.8 -0.9 86
2019-08-12 04:00:00 12.3 0 Calma 13 Nordeste 0 901.1 -1.1 85
2019-08-12 03:00:00 12.7 4 Norte 11 Nordeste 0 901.5 -0.5 84
2019-08-12 02:00:00 13.7 9 Norte 12 Norte 0 901.7 -0.2 81
2019-08-12 01:00:00 14.5 2 Nordeste 7 Norte 0 902.2 0.7 80
2019-08-12 00:00:00 14.8 3 Sur 7 Noroeste 0 902 1.2 79
2019-08-11 23:00:00 15.7 3 Sudoeste 10 Nordeste 0 901.9 1.8 74
2019-08-11 22:00:00 16.1 3 Norte 9 Norte 0 901.5 1.5 74
2019-08-11 21:00:00 18.2 5 Noroeste 18 Sudoeste 0 900.8 0.4 63
2019-08-11 20:00:00 21 8 Oeste 22 Sudoeste 0 900.1 -0.6 48
2019-08-11 19:00:00 23.5 5 Oeste 14 Oeste 0 900 -0.8 36
2019-08-11 18:00:00 23.1 5 Oeste 18 Sudoeste 0 900.4 -0.7 43
2019-08-11 17:00:00 24.4 10 Sudoeste 19 Oeste 0 900.7 -0.8 40
2019-08-11 16:00:00 22.8 7 Sur 23 Sudoeste 0 900.8 -1.1 50
2019-08-11 15:00:00 22.8 5 Sur 22 Sudoeste 0 901.1 -0.5 57
2019-08-11 14:00:00 20.8 6 Sudoeste 18 Noroeste 0 901.5 0.2 73
2019-08-11 13:00:00 18.6 9 Sudoeste 18 Sudoeste 0 901.9 -0.4 81
2019-08-11 12:00:00 18.1 8 Sudoeste 14 Sudoeste 0 901.6 0.2 84
2019-08-11 11:00:00 16.7 4 Sur 25 Norte 0.2 901.3 1.2 88
2019-08-11 10:00:00 14.8 5 Sudeste 37 Sudoeste 1.4 902.3 2.5 91
2019-08-11 09:00:00 15.5 6 Noroeste 35 Sudoeste 2.2 901.4 1.3 88
2019-08-11 08:00:00 17.1 19 Oeste 36 Oeste 1.4 900.1 -0.1 87
2019-08-11 07:00:00 17.1 19 Oeste 35 Oeste 0.6 899.8 -0.9 79
2019-08-11 06:00:00 19.3 6 Sudoeste 19 Oeste 0 900.1 -1.2 63
2019-08-11 05:00:00 17.6 3 Norte 8 Nordeste 0 900.2 -2.1 59
2019-08-11 04:00:00 17 0 Calma 6 Oeste 0 900.7 -1.9 62
2019-08-11 03:00:00 17.2 0 Calma 5 Sudoeste 0 901.3 -1.9 57
2019-08-11 02:00:00 17.2 3 Este 6 Oeste 0 902.3 -1 59
2019-08-11 01:00:00 17.9 3 Sudoeste 18 Oeste 0 902.6 -0.5 57
2019-08-11 00:00:00 19.3 12 Norte 15 Nordeste 0 903.2 0.5 45
2019-08-10 23:00:00 20.4 7 Norte 15 Norte 0 903.3 0.8 38
2019-08-10 22:00:00 20.6 10 Nordeste 19 Norte 0 903.1 0.6 36
2019-08-10 21:00:00 21.8 8 Norte 13 Nordeste 0 902.7 -0.3 32
2019-08-10 20:00:00 24.6 5 Sudoeste 19 Sudoeste 0 902.5 -0.8 25
2019-08-10 19:00:00 25.7 3 Nordeste 14 Sudeste 0 902.5 -1.1 25
2019-08-10 18:00:00 26 8 Sudeste 23 Sudoeste 0 903 -0.7 25
2019-08-10 17:00:00 27 10 Sur 27 Sur 0 903.3 -0.5 21
2019-08-10 16:00:00 26.9 14 Sur 27 Sur 0 903.6 -0.5 28
2019-08-10 15:00:00 26.2 10 Sudoeste 29 Sudoeste 0 903.7 -0.7 30
2019-08-10 14:00:00 26.2 6 Sur 22 Sudoeste 0 903.8 -0.5 29
2019-08-10 13:00:00 25.4 6 Sur 22 Sudoeste 0 904.1 -0.1 34
2019-08-10 12:00:00 23.8 12 Sudoeste 24 Sur 0 904.4 0.6 35
2019-08-10 11:00:00 22.2 12 Sudoeste 23 Sudoeste 0 904.3 0.6 40
2019-08-10 10:00:00 20.2 5 Sur 9 Sur 0 904.2 1.3 54
2019-08-10 09:00:00 16.9 6 Nordeste 15 Nordeste 0 903.8 1.3 62
2019-08-10 08:00:00 13.8 3 Norte 13 Norte 0 903.7 1.3 76
2019-08-10 07:00:00 13.7 4 Norte 10 Norte 0 902.9 0.5 79
2019-08-10 06:00:00 14.2 4 Norte 13 Nordeste 0 902.5 -0.1 79
2019-08-10 05:00:00 15.3 4 Nordeste 15 Norte 0.2 902.4 -0.4 75
2019-08-10 04:00:00 16.4 9 Norte 15 Norte 0 902.4 -0.1 73
2019-08-10 03:00:00 17 5 Nordeste 17 Norte 0 902.6 -0.4 78
2019-08-10 02:00:00 17.8 9 Nordeste 15 Norte 0 902.8 -0.1 78
2019-08-10 01:00:00 17.8 5 Nordeste 21 Nordeste 0 902.5 1 80
2019-08-10 00:00:00 17.6 11 Nordeste 19 Nordeste 0 903 2.2 80
2019-08-09 23:00:00 19.8 7 Nordeste 19 Oeste 0.2 902.9 4 72
2019-08-09 22:00:00 21 5 Norte 17 Noroeste 0 901.5 2.6 77
2019-08-09 21:00:00 22.5 13 Noroeste 32 Sudoeste 1 900.8 1.5 64
2019-08-09 20:00:00 28.4 9 Sudoeste 21 Sudoeste 0 898.9 -0.7 32
2019-08-09 19:00:00 30.1 12 Sudoeste 23 Sudoeste 0 898.9 -1.2 28
2019-08-09 18:00:00 30.8 7 Sur 27 Sur 0 899.3 -0.8 27
2019-08-09 17:00:00 30.6 13 Sur 32 Sur 0 899.6 -0.5 27
2019-08-09 16:00:00 30.4 9 Sudoeste 33 Sur 0 900.1 0 27
2019-08-09 15:00:00 32.3 14 Sur 32 Sur 0 900.1 0 24
2019-08-09 14:00:00 31.3 8 Sudoeste 35 Sudoeste 0 900.1 -0.1 24
2019-08-09 13:00:00 30.3 13 Sur 33 Sur 0 900.1 0.2 25
2019-08-09 12:00:00 30.6 10 Sur 27 Sudeste 0 900.1 0.2 24
2019-08-09 11:00:00 29.1 8 Sudeste 28 Sudeste 0 900.2 0.4 28
2019-08-09 10:00:00 27.5 11 Sur 19 Sur 0 899.9 0.3 37
2019-08-09 09:00:00 24.8 4 Nordeste 13 Oeste 0 899.9 0.8 48
2019-08-09 08:00:00 22.4 7 Oeste 14 Oeste 0 899.8 0.5 52
2019-08-09 07:00:00 22.8 8 Sudoeste 18 Sudoeste 0 899.6 0 50
2019-08-09 06:00:00 22.9 3 Noroeste 15 Nordeste 0 899.1 -0.7 50
2019-08-09 05:00:00 23.2 4 Este 16 Norte 0 899.3 -0.7 49
2019-08-09 04:00:00 23.8 3 Oeste 16 Este 0 899.6 -0.1 47
2019-08-09 03:00:00 24.5 6 Este 24 Nordeste 0 899.8 0.4 44
2019-08-09 02:00:00 25 10 Sur 24 Sur 0 900 0.7 39
2019-08-09 01:00:00 25.3 6 Sur 21 Sur 0 899.7 0.9 39
2019-08-09 00:00:00 24.7 3 Norte 9 Nordeste 0 899.4 0.9 41
2019-08-08 23:00:00 24.1 8 Norte 20 Nordeste 0 899.3 0.9 43
2019-08-08 22:00:00 23.9 13 Nordeste 21 Nordeste 0 898.8 0.1 45
2019-08-08 21:00:00 25.7 6 Norte 12 Nordeste 0 898.5 -0.4 39
2019-08-08 20:00:00 27.7 7 Sur 16 Oeste 0 898.4 -0.6 32
2019-08-08 19:00:00 29.4 10 Sudoeste 21 Sur 0 898.7 -0.4 29
2019-08-08 18:00:00 29.9 10 Sudoeste 26 Sudoeste 0 898.9 -0.6 28
2019-08-08 17:00:00 29.6 11 Sudeste 32 Sudoeste 0 899 -0.7 30
2019-08-08 16:00:00 30.1 10 Sur 38 Sur 0 899.1 -1.1 31
2019-08-08 15:00:00 28.9 9 Sur 32 Sudoeste 0 899.5 -0.7 32
2019-08-08 14:00:00 28.8 8 Sudeste 23 Sudoeste 0 899.7 -0.6 33
2019-08-08 13:00:00 27.6 13 Sur 22 Sur 0 900.2 0.1 36
2019-08-08 12:00:00 26.5 6 Sudoeste 20 Sudoeste 0 900.2 0.3 36
2019-08-08 11:00:00 25.5 10 Sudeste 17 Sudeste 0 900.3 0.4 40
2019-08-08 10:00:00 24.2 5 Sudeste 13 Nordeste 0 900.1 0.3 45
2019-08-08 09:00:00 20.7 7 Nordeste 15 Nordeste 0 899.9 0.3 57
2019-08-08 08:00:00 17.8 4 Noroeste 9 Oeste 0 899.9 0.3 69
2019-08-08 07:00:00 17.8 2 Norte 10 Norte 0 899.8 0.1 71
2019-08-08 06:00:00 18.7 0 Calma 6 Nordeste 0 899.6 -0.2 71
2019-08-08 05:00:00 18.8 0 Calma 10 Nordeste 0 899.6 0.1 71
2019-08-08 04:00:00 19.5 7 Norte 15 Oeste 0 899.7 0.3 68
2019-08-08 03:00:00 20.3 3 Noroeste 6 Oeste 0 899.8 0.6 65
2019-08-08 02:00:00 20.8 5 Norte 12 Norte 0 899.5 0.4 58
2019-08-08 01:00:00 21 8 Norte 13 Norte 0 899.4 0.6 58
2019-08-08 00:00:00 21.7 6 Norte 9 Norte 0 899.2 0.9 56
2019-08-07 23:00:00 22.2 5 Norte 11 Nordeste 0 899.1 0.8 54
2019-08-07 22:00:00 22.9 6 Norte 17 Sur 0 898.8 0.5 51
2019-08-07 21:00:00 24.1 5 Sur 20 Sudoeste 0 898.3 -0.1 43
2019-08-07 20:00:00 24.9 7 Sudoeste 15 Sudoeste 0 898.3 -0.1 40
2019-08-07 19:00:00 26.1 7 Sur 25 Sudoeste 0 898.3 0 35
2019-08-07 18:00:00 26.9 11 Sudoeste 24 Sudoeste 0 898.4 0 32
2019-08-07 17:00:00 27.3 7 Sur 31 Sur 0 898.4 -0.1 29
2019-08-07 16:00:00 27.9 18 Sudoeste 32 Sudoeste 0 898.3 -0.3 28
2019-08-07 15:00:00 27.7 14 Sur 28 Sudoeste 0 898.4 -0.5 31
2019-08-07 14:00:00 27.1 17 Sudoeste 30 Sudoeste 0 898.5 0.1 34
2019-08-07 13:00:00 27 10 Sur 26 Sur 0 898.6 0.6 38
2019-08-07 12:00:00 25.7 13 Sudoeste 23 Sur 0 898.9 1.3 43
2019-08-07 11:00:00 24.7 10 Sudoeste 19 Sudoeste 0 898.4 1.1 56
2019-08-07 10:00:00 21.9 3 Sudeste 6 Sudeste 0 898 0.6 62
2019-08-07 09:00:00 19.3 2 Sudoeste 5 Sudoeste 0 897.6 1.2 71
2019-08-07 08:00:00 18.3 2 Nordeste 9 Norte 0 897.3 0.7 71
2019-08-07 07:00:00 17.6 2 Noroeste 7 Sudoeste 0 897.4 0.5 77
2019-08-07 06:00:00 18.1 6 Oeste 12 Oeste 0 896.4 -0.6 74
2019-08-07 05:00:00 18.6 5 Oeste 9 Oeste 0 896.6 -0.8 71
2019-08-07 04:00:00 19.2 2 Nordeste 5 Nordeste 0 896.9 -0.8 61
2019-08-07 03:00:00 19.7 4 Norte 8 Norte 0 897 -1.1 58
2019-08-07 02:00:00 20 2 Nordeste 9 Norte 0 897.4 -0.3 56
2019-08-07 01:00:00 20.9 8 Norte 15 Norte 0 897.7 0.4 51
2019-08-07 00:00:00 21.2 4 Nordeste 14 Norte 0 898.1 1 49
2019-08-06 23:00:00 22.7 7 Nordeste 15 Norte 0 897.7 0.4 43
2019-08-06 22:00:00 24.1 10 Norte 22 Nordeste 0 897.3 -0.4 39
2019-08-06 21:00:00 25 9 Norte 18 Nordeste 0 897.1 -0.9 39
2019-08-06 20:00:00 27.6 4 Nordeste 12 Oeste 0 897.3 -1 34
2019-08-06 19:00:00 29.3 6 Oeste 17 Sudoeste 0 897.7 -1.4 26
2019-08-06 18:00:00 29.8 5 Oeste 26 Sur 0 898 -1.5 25
2019-08-06 17:00:00 30.6 11 Sur 22 Sur 0 898.3 -1.2 25
2019-08-06 16:00:00 29.4 12 Sudoeste 22 Sur 0 899.1 -0.5 28
2019-08-06 15:00:00 29.2 9 Sudoeste 26 Sudoeste 0 899.5 -0.2 31
2019-08-06 14:00:00 29.6 11 Sudoeste 26 Sudoeste 0 899.5 -0.5 31
2019-08-06 13:00:00 29.6 10 Sur 23 Sur 0 899.6 -0.4 30
2019-08-06 12:00:00 28.3 13 Sur 19 Sur 0 899.7 -0.2 33
2019-08-06 11:00:00 27.2 6 Sudeste 12 Sur 0 900 0.3 42
2019-08-06 10:00:00 24.1 4 Sudeste 8 Sur 0 900 0.4 51
2019-08-06 09:00:00 21.8 4 Nordeste 11 Norte 0 899.9 0.5 58
2019-08-06 08:00:00 18.8 5 Nordeste 15 Nordeste 0 899.7 0 67
2019-08-06 07:00:00 19 5 Nordeste 21 Nordeste 0 899.6 -0.4 64
2019-08-06 06:00:00 20.4 10 Norte 16 Nordeste 0 899.4 -0.8 57
2019-08-06 05:00:00 20.9 7 Nordeste 19 Nordeste 0 899.7 -0.8 55
2019-08-06 04:00:00 20.2 11 Nordeste 19 Nordeste 0 900 -0.6 56
2019-08-06 03:00:00 20.4 7 Norte 19 Nordeste 0 900.2 -0.3 53
2019-08-06 02:00:00 21.1 7 Norte 16 Nordeste 0 900.5 0.1 50
2019-08-06 01:00:00 21.9 7 Norte 20 Nordeste 0 900.6 0.7 45
2019-08-06 00:00:00 22.4 12 Norte 23 Nordeste 0 900.5 1.2 43
2019-08-05 23:00:00 23.1 7 Norte 20 Norte 0 900.4 1.1 40
2019-08-05 22:00:00 24.1 10 Nordeste 20 Nordeste 0 899.9 0.5 35
2019-08-05 21:00:00 25.8 9 Nordeste 12 Nordeste 0 899.3 -0.4 32
2019-08-05 20:00:00 28.7 5 Sudoeste 18 Sudoeste 0 899.3 -0.8 26
2019-08-05 19:00:00 30.5 12 Sur 22 Sudoeste 0 899.4 -1.2 19
2019-08-05 18:00:00 31.1 17 Sur 29 Sur 0 899.7 -0.9 17
2019-08-05 17:00:00 31.5 15 Sur 31 Sur 0 900.1 -0.8 19
2019-08-05 16:00:00 31 14 Sur 33 Sur 0 900.6 -0.8 23
2019-08-05 15:00:00 31 12 Sur 32 Sudoeste 0 900.6 -1.1 23
2019-08-05 14:00:00 30.3 16 Sudoeste 24 Sudoeste 0 900.9 -0.9 24
2019-08-05 13:00:00 29.8 12 Sur 26 Sur 0 901.4 -0.5 29
2019-08-05 12:00:00 28.8 10 Sur 19 Sur 0 901.7 -0.2 34
2019-08-05 11:00:00 26.7 7 Sur 12 Sur 0 901.8 -0.1 46
2019-08-05 10:00:00 24.6 5 Sur 9 Sudeste 0 901.9 0.2 50
2019-08-05 09:00:00 21 8 Nordeste 13 Nordeste 0 901.9 0.5 60
2019-08-05 08:00:00 17.7 5 Norte 8 Nordeste 0 901.9 0.7 67
2019-08-05 07:00:00 17.2 0 Calma 6 Sudeste 0 901.7 0.1 67
2019-08-05 06:00:00 17.2 0 Calma 15 Norte 0 901.4 -0.3 68
2019-08-05 05:00:00 19.8 7 Norte 20 Nordeste 0 901.2 -0.6 58
2019-08-05 04:00:00 20.5 11 Nordeste 19 Norte 0 901.6 -0.4 55
2019-08-05 03:00:00 20.6 10 Norte 17 Norte 0 901.7 -0.2 52
2019-08-05 02:00:00 21.2 6 Norte 21 Norte 0 901.8 0 50
2019-08-05 01:00:00 21.3 5 Norte 15 Norte 0 902 1.4 48
2019-08-05 00:00:00 21.8 4 Norte 22 Nordeste 0 901.9 1.8 43
2019-08-04 23:00:00 22.4 8 Norte 21 Norte 0 901.8 1.9 34
2019-08-04 22:00:00 23.8 12 Norte 21 Norte 0 900.6 0.8 29
2019-08-04 21:00:00 26 8 Norte 14 Norte 0 900.1 0.3 25
2019-08-04 20:00:00 29.5 5 Oeste 15 Sudoeste 0 899.9 -0.1 19
2019-08-04 19:00:00 31 4 Noroeste 26 Sudoeste 0 899.8 -0.6 19
2019-08-04 18:00:00 31.8 8 Sudoeste 24 Sudoeste 0 899.8 -0.7 22
2019-08-04 17:00:00 31.8 14 Sur 27 Sudoeste 0 900 -0.6 19
2019-08-04 16:00:00 31.5 15 Sudoeste 31 Sudoeste 0 900.4 -0.6 21
2019-08-04 15:00:00 31.4 14 Sur 30 Sudoeste 0 900.5 -0.7 25
2019-08-04 14:00:00 31 14 Sudoeste 27 Sudoeste 0 900.6 -0.9 26
2019-08-04 13:00:00 30 14 Sudoeste 26 Sur 0 901 -0.5 29
2019-08-04 12:00:00 29.2 9 Sur 16 Sur 0 901.2 -0.3 33
2019-08-04 11:00:00 26.9 5 Sur 10 Sur 0 901.5 0.4 40
2019-08-04 10:00:00 24.6 4 Sudeste 12 Nordeste 0 901.5 0.6 42
2019-08-04 09:00:00 21.3 6 Nordeste 11 Norte 0 901.5 0.7 53
2019-08-04 08:00:00 18.9 6 Norte 13 Norte 0 901.1 0.5 56
2019-08-04 07:00:00 18.9 7 Norte 15 Norte 0 900.9 0.3 54
2019-08-04 06:00:00 19.5 7 Norte 18 Norte 0 900.8 0.2 51
2019-08-04 05:00:00 20.3 9 Nordeste 16 Norte 0 900.6 -0.3 47
2019-08-04 04:00:00 20.6 9 Norte 21 Nordeste 0 900.6 -0.4 45
2019-08-04 03:00:00 21 15 Norte 22 Nordeste 0 900.6 -0.3 43
2019-08-04 02:00:00 20.9 9 Norte 20 Nordeste 0 900.9 0.4 45
2019-08-04 01:00:00 21.4 8 Norte 15 Nordeste 0 901 1 43
2019-08-04 00:00:00 21.3 8 Norte 15 Norte 0 900.9 1.5 43
2019-08-03 23:00:00 21.7 4 Norte 17 Nordeste 0 900.5 1.4 43
2019-08-03 22:00:00 23.3 9 Norte 17 Norte 0 900 0.6 38
2019-08-03 21:00:00 25.8 8 Norte 13 Norte 0 899.4 -0.3 29
2019-08-03 20:00:00 28.9 5 Oeste 14 Sudoeste 0 899.1 -1.1 23
2019-08-03 19:00:00 30.8 6 Oeste 22 Sudoeste 0 899.4 -1 22
2019-08-03 18:00:00 30.9 9 Sudoeste 23 Noroeste 0 899.7 -1.2 23
2019-08-03 17:00:00 31.3 9 Oeste 27 Noroeste 0 900.2 -1.1 23
2019-08-03 16:00:00 31 10 Sur 23 Sudoeste 0 900.4 -1.2 22
2019-08-03 15:00:00 31 10 Sudoeste 23 Sudoeste 0 900.9 -1.1 21
2019-08-03 14:00:00 30.4 13 Sur 23 Sur 0 901.3 -0.7 22
2019-08-03 13:00:00 29.7 6 Sudeste 17 Sur 0 901.6 -0.6 23
2019-08-03 12:00:00 28.8 6 Sur 12 Sur 0 902 0 18
2019-08-03 11:00:00 26.7 5 Sur 10 Sudeste 0 902 0.3 25
2019-08-03 10:00:00 23 4 Este 13 Nordeste 0 902.2 0.4 34
2019-08-03 09:00:00 20 6 Nordeste 19 Nordeste 0 902 0.3 35
2019-08-03 08:00:00 17.4 11 Norte 22 Norte 0 901.7 -0.1 33
2019-08-03 07:00:00 17 11 Norte 22 Norte 0 901.8 -0.2 32
2019-08-03 06:00:00 16.9 11 Norte 23 Norte 0 901.7 -0.5 33
2019-08-03 05:00:00 17.3 12 Norte 23 Norte 0 901.8 -0.4 35
2019-08-03 04:00:00 17.5 12 Norte 20 Norte 0 902 -0.1 37
2019-08-03 03:00:00 17 6 Norte 18 Nordeste 0 902.2 0.3 42
2019-08-03 02:00:00 17.3 7 Norte 18 Nordeste 0 902.2 0.3 40
2019-08-03 01:00:00 17.6 4 Noroeste 18 Norte 0 902.1 0.6 38
2019-08-03 00:00:00 19.1 9 Norte 22 Nordeste 0 901.9 0.8 33
2019-08-02 23:00:00 19.9 14 Nordeste 23 Norte 0 901.9 0.9 33
2019-08-02 22:00:00 20.9 16 Norte 20 Norte 0 901.5 0.3 37
2019-08-02 21:00:00 22.6 8 Nordeste 12 Norte 0 901.1 -0.3 34
2019-08-02 20:00:00 25.7 5 Noroeste 20 Oeste 0 901 -0.4 24
2019-08-02 19:00:00 27.2 9 Oeste 32 Oeste 0 901.2 -0.6 21
2019-08-02 18:00:00 28 9 Oeste 31 Oeste 0 901.4 -0.7 23
2019-08-02 17:00:00 28.4 9 Sudoeste 33 Sudoeste 0 901.4 -0.7 24
2019-08-02 16:00:00 28.4 15 Sudoeste 30 Sudoeste 0 901.8 -0.5 23
2019-08-02 15:00:00 27.7 13 Sudoeste 27 Sudoeste 0 902.1 -0.2 26
2019-08-02 14:00:00 26.6 15 Sudoeste 28 Sudoeste 0 902.1 -0.3 35
2019-08-02 13:00:00 26.4 9 Sudoeste 21 Sudoeste 0 902.3 -0.2 33
2019-08-02 12:00:00 24.9 8 Sudeste 14 Sur 0 902.3 0.3 49
2019-08-02 11:00:00 22.6 6 Sur 10 Sur 0 902.4 0.7 61
2019-08-02 10:00:00 19.8 4 Este 7 Nordeste 0 902.5 1.1 59
2019-08-02 09:00:00 16.6 6 Nordeste 12 Norte 0 902 0.6 69
2019-08-02 08:00:00 13.5 2 Norte 6 Norte 0 901.7 0.4 85
2019-08-02 07:00:00 13.5 3 Norte 10 Norte 0 901.4 0 81
2019-08-02 06:00:00 14 0 Calma 9 Norte 0 901.4 -0.1 88
2019-08-02 05:00:00 14.4 2 Norte 8 Nordeste 0 901.3 -0.4 89
2019-08-02 04:00:00 15 5 Norte 9 Nordeste 0 901.4 -0.3 87
2019-08-02 03:00:00 15.7 4 Norte 15 Nordeste 0 901.5 0 87
2019-08-02 02:00:00 15.8 6 Norte 12 Nordeste 0 901.7 0.4 89
2019-08-02 01:00:00 16 2 Noroeste 15 Norte 0 901.7 1.2 87
2019-08-02 00:00:00 16.8 7 Norte 14 Norte 0 901.5 1.7 86
2019-08-01 23:00:00 16.9 5 Norte 11 Norte 0 901.3 1.7 86
2019-08-01 22:00:00 17.8 6 Norte 12 Nordeste 0 900.5 1.7 85
2019-08-01 21:00:00 19.6 9 Norte 22 Nordeste 0.6 899.8 0.8 76
2019-08-01 20:00:00 20.8 5 Sudoeste 25 Sudoeste 1.4 899.6 0.6 72
2019-08-01 19:00:00 27.4 6 Sudoeste 19 Sur 0 898.8 -0.8 33
2019-08-01 18:00:00 28.1 7 Oeste 25 Sur 0 899 -0.6 32
2019-08-01 17:00:00 26.9 6 Sur 22 Sudoeste 0 899 -0.9 38
2019-08-01 16:00:00 26.2 10 Sur 26 Sur 0 899.6 -0.7 37
2019-08-01 15:00:00 26.1 10 Sudeste 31 Sur 0 899.6 -1.2 39
2019-08-01 14:00:00 25.3 11 Sur 23 Sur 0 899.9 -1.8 43
2019-08-01 13:00:00 22.6 7 Sudeste 16 Sur 0 900.3 -0.5 55
2019-08-01 12:00:00 20.4 9 Sudeste 14 Este 0 900.8 0.3 65
2019-08-01 11:00:00 19.6 2 Oeste 19 Sudoeste 0 901.7 1.5 68
2019-08-01 10:00:00 19.4 6 Sur 10 Sur 0 900.8 1.1 69
2019-08-01 09:00:00 17.1 3 Oeste 13 Oeste 0 900.5 0.7 77
2019-08-01 08:00:00 17.8 5 Norte 24 Norte 0 900.2 0.4 70
2019-08-01 07:00:00 16.5 10 Nordeste 17 Nordeste 0 899.7 -1.1 75
2019-08-01 06:00:00 16.2 2 Sur 15 Norte 0 899.8 -0.9 79
2019-08-01 05:00:00 17.7 10 Oeste 25 Norte 0 899.8 -2.1 66
2019-08-01 04:00:00 17.1 6 Nordeste 17 Nordeste 0 900.8 -1 62
2019-08-01 03:00:00 18.2 10 Nordeste 24 Nordeste 0 900.7 -1.8 57
2019-08-01 02:00:00 17.1 7 Norte 15 Norte 0 901.9 0 61
2019-08-01 01:00:00 17.3 6 Norte 18 Nordeste 0 901.8 0.4 61
2019-08-01 00:00:00 18 7 Norte 19 Norte 0 902.5 1.3 58
2019-07-31 23:00:00 18.5 9 Norte 20 Norte 0 901.9 0.6 56
2019-07-31 22:00:00 19.3 8 Norte 21 Norte 0 901.4 0 54
2019-07-31 21:00:00 21 9 Norte 15 Norte 0 901.2 -0.4 50
2019-07-31 20:00:00 23.9 3 Noroeste 13 Sudoeste 0 901.3 -0.4 41
2019-07-31 19:00:00 24.6 8 Sudoeste 17 Sudoeste 0 901.4 -0.6 36
2019-07-31 18:00:00 25.3 9 Sudoeste 23 Sudoeste 0 901.6 -0.5 36
2019-07-31 17:00:00 25.7 4 Sudeste 21 Sudoeste 0 901.7 -0.9 32
2019-07-31 16:00:00 25.4 9 Sudoeste 22 Sur 0 902 -1.1 34
2019-07-31 15:00:00 25.8 6 Sur 21 Sur 0 902.1 -1.3 34
2019-07-31 14:00:00 25.3 10 Sudoeste 19 Sudoeste 0 902.6 -0.9 36
2019-07-31 13:00:00 23.6 6 Sudoeste 15 Sudoeste 0 903.1 -0.7 31
2019-07-31 12:00:00 21.8 6 Sur 9 Sudoeste 0 903.4 -0.3 33
2019-07-31 11:00:00 19.1 3 Sur 8 Este 0 903.5 0 44
2019-07-31 10:00:00 17.6 3 Sudeste 8 Este 0 903.8 0.3 43
2019-07-31 09:00:00 13.9 2 Este 5 Nordeste 0 903.7 0.4 53
2019-07-31 08:00:00 9.5 0 Calma 8 Norte 0 903.5 0 58
2019-07-31 07:00:00 8.4 3 Norte 9 Norte 0 903.5 0 66
2019-07-31 06:00:00 9.5 4 Noroeste 12 Norte 0 903.3 -0.3 64
2019-07-31 05:00:00 8.7 4 Oeste 9 Norte 0 903.5 -0.2 70
2019-07-31 04:00:00 9.4 5 Norte 10 Nordeste 0 903.5 -0.3 64
2019-07-31 03:00:00 9.6 0 Calma 9 Nordeste 0 903.6 0 77
2019-07-31 02:00:00 10.2 3 Norte 14 Norte 0 903.7 0.2 74
2019-07-31 01:00:00 10.8 5 Noroeste 13 Nordeste 0 903.8 1 76
2019-07-31 00:00:00 11.3 0 Calma 8 Nordeste 0 903.6 1.3 78
2019-07-30 23:00:00 12 2 Norte 5 Oeste 0 903.5 1.6 78
2019-07-30 22:00:00 13.5 0 Calma 6 Este 0 902.8 1.2 71
2019-07-30 21:00:00 15.7 5 Este 17 Oeste 0 902.3 0.7 62
2019-07-30 20:00:00 18 6 Oeste 25 Sudoeste 0 901.9 0.2 53
2019-07-30 19:00:00 20.5 10 Sudoeste 25 Sudoeste 0 901.6 -0.1 46
2019-07-30 18:00:00 21.3 12 Sudoeste 28 Sudoeste 0 901.6 -0.2 44
2019-07-30 17:00:00 22.5 12 Sudoeste 27 Sudoeste 0 901.7 -0.2 42
2019-07-30 16:00:00 23.5 9 Sudoeste 27 Sudoeste 0 901.7 -0.4 43
2019-07-30 15:00:00 24 11 Sudoeste 25 Sudoeste 0 901.8 -0.3 41
2019-07-30 14:00:00 22.3 13 Sudoeste 26 Sudoeste 0 901.9 -0.1 45
2019-07-30 13:00:00 21.9 9 Sudoeste 21 Sudoeste 0 902.1 0.2 47
2019-07-30 12:00:00 20.2 12 Sudoeste 23 Sudoeste 0 902.1 0.5 51
2019-07-30 11:00:00 19.6 8 Sudeste 15 Sudeste 0 902 0.7 59
2019-07-30 10:00:00 18 5 Sudeste 11 Sur 0 901.9 1.2 63
2019-07-30 09:00:00 15.8 5 Sur 9 Sur 0 901.6 1.4 72
2019-07-30 08:00:00 13.1 0 Calma 5 Oeste 0 901.3 1.5 87
2019-07-30 07:00:00 13.3 0 Calma 5 Sudoeste 0 900.7 1 84
2019-07-30 06:00:00 13.5 5 Norte 10 Oeste 0 900.2 0.2 85
2019-07-30 05:00:00 13.4 3 Sudoeste 21 Nordeste 0 899.8 0.1 86
2019-07-30 04:00:00 13.5 3 Norte 9 Oeste 0 899.7 0.3 86
2019-07-30 03:00:00 14.4 4 Sudoeste 12 Oeste 0 900 1.1 80
2019-07-30 02:00:00 15.6 2 Sudeste 10 Oeste 0 899.7 1.2 78
2019-07-30 01:00:00 17.1 4 Nordeste 11 Norte 0 899.4 1.9 73
2019-07-30 00:00:00 17.8 2 Este 6 Nordeste 0 898.9 2.1 68
2019-07-29 23:00:00 18.6 3 Nordeste 15 Oeste 0 898.5 2 61
2019-07-29 22:00:00 19.8 4 Noroeste 12 Norte 0 897.5 0.7 55
2019-07-29 21:00:00 22.2 6 Nordeste 15 Nordeste 0 896.8 -0.2 40
2019-07-29 20:00:00 25.2 4 Noroeste 20 Sudoeste 0 896.5 -0.8 29
2019-07-29 19:00:00 27.1 11 Sur 24 Sur 0 896.8 -0.7 25
2019-07-29 18:00:00 27.5 9 Sudoeste 25 Sur 0 897 -0.6 26
2019-07-29 17:00:00 26.8 8 Este 30 Sur 0 897.3 -0.4 26
2019-07-29 16:00:00 26.9 15 Sur 30 Sur 0 897.5 -0.4 26
2019-07-29 15:00:00 27.2 10 Sur 20 Sudoeste 0 897.6 -0.3 23
2019-07-29 14:00:00 26.4 9 Sudoeste 23 Sudoeste 0 897.7 -0.1 26
2019-07-29 13:00:00 25.1 13 Sudoeste 22 Oeste 0 897.9 0.2 26
2019-07-29 12:00:00 24.8 8 Sur 16 Sudoeste 0 897.9 0.3 27
2019-07-29 11:00:00 23 6 Sudeste 10 Nordeste 0 897.8 0.2 35
2019-07-29 10:00:00 19.2 8 Nordeste 15 Nordeste 0 897.7 0.2 42
2019-07-29 09:00:00 16.6 10 Nordeste 18 Norte 0 897.6 0.4 44
2019-07-29 08:00:00 13.1 6 Norte 19 Nordeste 0 897.6 0.4 41
2019-07-29 07:00:00 12.7 13 Norte 22 Norte 0 897.5 0.4 39
2019-07-29 06:00:00 12.8 13 Norte 23 Norte 0 897.2 -0.2 40
2019-07-29 05:00:00 12.7 11 Norte 23 Norte 0 897.2 -0.3 45
2019-07-29 04:00:00 12.8 13 Norte 22 Nordeste 0 897.1 -0.5 51
2019-07-29 03:00:00 12.5 6 Norte 17 Norte 0 897.4 -0.1 72
2019-07-29 02:00:00 12.6 7 Norte 15 Norte 0 897.5 0 72
2019-07-29 01:00:00 12.6 5 Norte 13 Norte 0 897.6 0.7 78
2019-07-29 00:00:00 13.5 3 Norte 20 Nordeste 0 897.5 0.9 76
2019-07-28 23:00:00 14.6 9 Norte 19 Norte 0 897.5 1.2 75
2019-07-28 22:00:00 15.7 13 Norte 18 Nordeste 0 896.9 1.2 71
2019-07-28 21:00:00 18 3 Sudeste 19 Norte 0 896.6 1 61
2019-07-28 20:00:00 19.6 9 Oeste 21 Sudoeste 0 896.3 0.6 52
2019-07-28 19:00:00 21.4 9 Sudoeste 26 Oeste 0 895.7 -0.2 44
2019-07-28 18:00:00 22.5 11 Sudoeste 31 Sudoeste 0 895.6 -0.4 42
2019-07-28 17:00:00 22.4 10 Oeste 27 Sudoeste 0 895.7 -0.6 40
2019-07-28 16:00:00 22.9 9 Sudoeste 26 Sudoeste 0 895.9 -0.6 34
2019-07-28 15:00:00 21.8 9 Sudoeste 26 Sudoeste 0 896 -0.6 36
2019-07-28 14:00:00 21.4 11 Sudoeste 28 Sudoeste 0 896.3 -0.4 38
2019-07-28 13:00:00 20.5 9 Noroeste 31 Sudoeste 0 896.5 -0.1 43
2019-07-28 12:00:00 19.8 8 Este 17 Sudeste 0 896.6 0.8 41
2019-07-28 11:00:00 19 8 Sudeste 15 Sudeste 0 896.7 1.2 43
2019-07-28 10:00:00 17 8 Sudeste 19 Sudoeste 0 896.6 0.3 51
2019-07-28 09:00:00 14.9 4 Sudeste 19 Nordeste 0 895.8 -0.1 59
2019-07-28 08:00:00 12.5 14 Norte 28 Noroeste 0 895.5 0 67
2019-07-28 07:00:00 10.2 3 Norte 10 Nordeste 0 896.3 0.9 82
2019-07-28 06:00:00 10.8 5 Norte 10 Norte 0 895.9 0.5 78
2019-07-28 05:00:00 10.9 5 Sudoeste 13 Norte 0 895.5 0.2 73
2019-07-28 04:00:00 12.1 6 Norte 18 Oeste 0 895.4 0.1 69
2019-07-28 03:00:00 12 6 Noroeste 15 Oeste 0 895.4 -0.2 70
2019-07-28 02:00:00 12.3 3 Sudoeste 20 Nordeste 0 895.3 0.3 71
2019-07-28 01:00:00 12.1 8 Noroeste 28 Noroeste 0 895.3 0.6 71
2019-07-28 00:00:00 12.1 5 Sudoeste 19 Sudoeste 0 895.6 1.6 72
2019-07-27 23:00:00 13.8 19 Norte 36 Norte 0 895 1.8 61
2019-07-26 12:00:00 20.2 5 Sudoeste 27 Nordeste 0 899.3 0 75
2019-07-26 11:00:00 19.6 5 Sur 18 Noroeste 0 899.7 0.8 79
2019-07-26 10:00:00 19.2 5 Este 17 Noroeste 0.2 899.9 0.6 80
2019-07-26 09:00:00 18.6 6 Noroeste 33 Norte 0 899.3 0.6 82
2019-07-26 08:00:00 18 12 Nordeste 28 Nordeste 0.2 898.9 0.7 85
2019-07-26 07:00:00 20.1 4 Noroeste 21 Noroeste 0 899.3 0.5 68
2019-07-26 06:00:00 22.3 6 Norte 21 Oeste 0 898.7 -0.5 48
2019-07-26 05:00:00 22.9 8 Nordeste 13 Norte 0 898.2 -1.7 39
2019-07-26 04:00:00 23.2 10 Norte 18 Norte 0 898.8 -1.1 38
2019-07-26 03:00:00 23.6 5 Norte 19 Norte 0 899.2 -1 39
2019-07-26 02:00:00 23.8 5 Oeste 21 Norte 0 899.9 -0.3 42
2019-07-26 01:00:00 23.8 12 Norte 19 Nordeste 0 899.9 0.1 42
2019-07-26 00:00:00 24.2 12 Norte 19 Nordeste 0 900.2 0.6 43
2019-07-25 23:00:00 26.4 10 Oeste 35 Nordeste 0 900.2 1.1 36
2019-07-25 22:00:00 26.9 17 Nordeste 30 Nordeste 0 899.8 1 33
2019-07-25 21:00:00 28.8 10 Sur 32 Sur 0 899.6 0.7 25
2019-07-25 20:00:00 30.1 14 Sudoeste 32 Sudoeste 0 899.1 -0.2 21
2019-07-25 19:00:00 31.6 20 Sur 31 Sur 0 898.8 -0.6 17
2019-07-25 18:00:00 33.3 17 Sur 36 Sudoeste 0 898.9 -1 16
2019-07-25 17:00:00 33.9 17 Sur 43 Sudoeste 0 899.3 -1.1 16
2019-07-25 16:00:00 33.5 12 Sudeste 33 Sur 0 899.4 -1.4 19
2019-07-25 15:00:00 33 12 Sudeste 34 Sur 0 899.9 -1.1 16
2019-07-25 14:00:00 33.9 15 Sur 32 Sur 0 900.4 -0.9 14
2019-07-25 13:00:00 32.9 16 Sur 29 Sur 0 900.8 -0.7 17
2019-07-25 12:00:00 32.5 12 Sur 28 Sur 0 901 -0.6 18
2019-07-25 11:00:00 30.9 12 Sudeste 23 Sur 0 901.3 -0.2 19
2019-07-25 10:00:00 28.6 5 Nordeste 11 Nordeste 0 901.5 0.1 23
2019-07-25 09:00:00 25.1 6 Nordeste 17 Norte 0 901.6 0.4 33
2019-07-25 08:00:00 23.8 13 Norte 21 Norte 0 901.5 0.2 26
2019-07-25 07:00:00 23.2 13 Norte 19 Nordeste 0 901.4 -0.1 26
2019-07-25 06:00:00 23.5 17 Norte 29 Norte 0 901.2 -0.5 26
2019-07-25 05:00:00 24.3 12 Norte 17 Oeste 0 901.3 -0.7 24
2019-07-25 04:00:00 24.7 3 Oeste 13 Nordeste 0 901.5 -0.8 26
2019-07-25 03:00:00 27 5 Sudeste 41 Nordeste 0 901.7 -0.6 21
2019-07-25 02:00:00 27.7 20 Nordeste 35 Nordeste 0 902 -0.2 21
2019-07-25 01:00:00 26 4 Nordeste 14 Norte 0 902.3 0.7 24
2019-07-25 00:00:00 25.5 11 Norte 30 Norte 0 902.3 0.8 26
2019-07-24 23:00:00 26.4 14 Norte 25 Norte 0 902.2 0.8 24
2019-07-24 22:00:00 26.4 18 Nordeste 26 Norte 0 901.6 0.2 24
2019-07-24 21:00:00 28.7 12 Norte 23 Sur 0 901.5 -0.3 20
2019-07-24 20:00:00 31.4 11 Sur 23 Sur 0 901.4 -0.9 17
2019-07-24 19:00:00 32.1 8 Sur 33 Sudoeste 0 901.4 -1.1 14
2019-07-24 18:00:00 32.8 10 Sudoeste 35 Sudoeste 0 901.8 -1 15
2019-07-24 17:00:00 32.6 11 Sudoeste 35 Sudoeste 0 902.3 -0.9 15
2019-07-24 16:00:00 33.6 18 Sudeste 31 Sur 0 902.5 -1 13
2019-07-24 15:00:00 33.9 10 Sur 30 Sudoeste 0 902.8 -0.8 15
2019-07-24 14:00:00 32.8 13 Sudoeste 34 Sudoeste 0 903.2 -0.3 17
2019-07-24 13:00:00 32.7 13 Sur 27 Sudeste 0 903.5 0.1 15
2019-07-24 12:00:00 32.3 10 Sudeste 23 Sudeste 0 903.6 0.2 17
2019-07-24 11:00:00 31 10 Sur 15 Sur 0 903.5 0.2 22
2019-07-24 10:00:00 28.5 5 Este 15 Norte 0 903.4 0.1 30
2019-07-24 09:00:00 24.7 8 Nordeste 19 Nordeste 0 903.4 0.1 39
2019-07-24 08:00:00 22.1 9 Norte 21 Norte 0 903.3 -0.1 37
2019-07-24 07:00:00 21.9 13 Nordeste 27 Nordeste 0 903.3 -0.4 34
2019-07-24 06:00:00 21.8 15 Nordeste 26 Nordeste 0 903.3 -1.2 33
2019-07-24 05:00:00 22.5 15 Norte 22 Norte 0 903.4 -0.6 31
2019-07-24 04:00:00 23.5 13 Norte 24 Norte 0 903.7 -0.4 29
2019-07-24 03:00:00 24.1 13 Norte 23 Norte 0 904.5 -0.2 29
2019-07-24 02:00:00 25.1 14 Norte 26 Norte 0 904 -0.3 25
2019-07-24 01:00:00 24.2 15 Norte 26 Nordeste 0 904.1 0.3 31
2019-07-24 00:00:00 25.4 4 Nordeste 29 Oeste 0 904.7 1.6 32